EDDM/MUC METAR and TAF weather

Enter ICAO airport designator
Station Type Date Time Source
EDDM METAR 2020/12/05 05:20 UTC NOAA

EDDM 050520Z 26007KT 230V290 CAVOK 00/M02 Q0996 NOSIG


Station Type Date Time Source
EDDM Decoded METAR 2020/12/05 05:20 UTC NOAA

Munchen, Germany (EDDM) 48-21N 011-47E
Dec 05, 2020 - 12:20 AM EST / 2020.12.05 0520 UTC
Wind: from the W (260 degrees) at 8 MPH (7 KT) (direction variable):0
Visibility: greater than 7 mile(s):0
Temperature: 32 F (0 C)
Windchill: 24 F (-4 C):1
Dew Point: 28 F (-2 C)
Relative Humidity: 86%
Pressure (altimeter): 29.41 in. Hg (0996 hPa)
ob: EDDM 050520Z 26007KT 230V290 CAVOK 00/M02 Q0996 NOSIG
cycle: 5

Station Type Date Time Source
EDDM TAF 2020/12/05 06:27 UTC NOAA

TAF EDDM 050500Z 0506/0612 26008KT CAVOK PROB30
TEMPO 0506/0508 -FZRA
BECMG 0509/0511 12005KT PROB30
TEMPO 0509/0515 4000 -RASN BKN012
BECMG 0515/0518 VRB03KT
BECMG 0519/0523 0500 FZFG VV001
BECMG 0522/0524 26005KT PROB30
TEMPO 0602/0609 -FZDZ
BECMG 0608/0611 7000 NSW BKN007

Example: see airport list